Time;durP1;ratioP1;P1;durP2;ratioP2;P2;SDS_P1;SDS_P2;PMS_P1;PMS_P2;Temp;Humidity;BMP_temperature;BMP_pressure;BME280_temperature;BME280_humidity;BME280_pressure;Samples;Min_cycle;Max_cycle;Signal;HPM_P1;HPM_P2
2021/05/28 00:01:01;;;;;;;5.55;4.15;;;12.20;98.00;;;;;;6222844;28;20578;-76
2021/05/28 00:04:03;;;;;;;8.73;5.10;;;12.20;97.80;;;;;;6223087;28;20045;-76
2021/05/28 00:07:05;;;;;;;6.00;4.57;;;12.20;97.80;;;;;;6222916;28;20519;-76
2021/05/28 00:10:07;;;;;;;5.00;4.55;;;12.10;98.10;;;;;;6223131;28;20136;-76
2021/05/28 00:13:09;;;;;;;5.63;5.13;;;12.10;98.20;;;;;;6222564;28;20581;-76
2021/05/28 00:16:11;;;;;;;6.32;4.97;;;12.00;98.10;;;;;;6222434;28;20137;-76
2021/05/28 00:19:13;;;;;;;7.50;5.07;;;12.00;98.40;;;;;;6222796;28;20045;-76
2021/05/28 00:22:14;;;;;;;8.43;5.60;;;12.00;98.50;;;;;;6223060;28;20139;-75
2021/05/28 00:25:16;;;;;;;12.63;5.25;;;12.00;98.50;;;;;;6222693;28;20129;-75
2021/05/28 00:28:17;;;;;;;9.40;5.60;;;12.00;98.60;;;;;;6222768;28;20056;-76
2021/05/28 00:31:19;;;;;;;6.25;5.60;;;12.10;98.50;;;;;;6222037;28;20052;-75
2021/05/28 00:34:21;;;;;;;5.22;4.72;;;12.00;98.60;;;;;;6222840;28;20080;-75
2021/05/28 00:37:23;;;;;;;7.63;6.43;;;12.00;98.80;;;;;;6222306;28;20534;-75
2021/05/28 00:40:25;;;;;;;8.48;6.07;;;12.00;98.90;;;;;;6221950;28;20057;-75
2021/05/28 00:43:26;;;;;;;6.28;5.68;;;12.00;98.90;;;;;;6222389;28;20081;-75
2021/05/28 00:46:28;;;;;;;6.07;5.47;;;12.00;98.70;;;;;;6222547;28;20092;-75
2021/05/28 00:49:30;;;;;;;6.18;5.57;;;12.00;98.80;;;;;;6221845;28;20070;-75
2021/05/28 00:52:31;;;;;;;7.55;5.60;;;12.00;98.90;;;;;;6221876;28;20490;-76
2021/05/28 00:55:34;;;;;;;9.60;5.82;;;12.10;98.70;;;;;;6222084;28;20129;-75
2021/05/28 00:58:36;;;;;;;7.85;5.35;;;12.10;98.60;;;;;;6213279;28;20137;-75
2021/05/28 01:01:37;;;;;;;8.90;4.70;;;12.10;98.40;;;;;;6197306;28;20046;-76
2021/05/28 01:04:39;;;;;;;6.25;4.88;;;12.10;98.20;;;;;;6197389;28;20050;-74
2021/05/28 01:07:41;;;;;;;10.02;5.70;;;12.10;98.00;;;;;;6197619;28;20074;-76
2021/05/28 01:10:42;;;;;;;5.35;4.85;;;12.10;97.90;;;;;;6197379;28;20510;-75
2021/05/28 01:13:43;;;;;;;7.43;4.95;;;12.10;97.70;;;;;;6197345;28;20142;-75
2021/05/28 01:16:44;;;;;;;8.73;5.10;;;12.10;97.50;;;;;;6197215;28;20438;-76
2021/05/28 01:19:47;;;;;;;7.00;5.28;;;12.10;97.70;;;;;;6197158;28;20129;-75
2021/05/28 01:22:49;;;;;;;6.50;4.93;;;12.10;97.90;;;;;;6197713;28;20120;-75
2021/05/28 01:25:50;;;;;;;8.73;5.43;;;12.20;97.90;;;;;;6198001;28;20054;-76
2021/05/28 01:28:52;;;;;;;7.05;5.32;;;12.20;97.50;;;;;;6202268;28;20125;-76
2021/05/28 01:31:53;;;;;;;4.60;3.78;;;12.20;97.20;;;;;;6202067;28;20050;-76
2021/05/28 01:34:54;;;;;;;7.47;4.72;;;12.20;97.20;;;;;;6202274;28;20076;-76
2021/05/28 01:37:57;;;;;;;5.57;5.07;;;12.20;97.20;;;;;;6202399;28;20369;-76
2021/05/28 01:40:59;;;;;;;5.78;4.55;;;12.20;97.20;;;;;;6201772;28;20137;-76
2021/05/28 01:44:00;;;;;;;6.95;5.35;;;12.20;96.90;;;;;;6202178;28;20046;-76
2021/05/28 01:47:01;;;;;;;5.35;4.35;;;12.20;97.00;;;;;;6202306;28;20089;-76
2021/05/28 01:50:04;;;;;;;7.57;4.85;;;12.20;97.20;;;;;;6202146;28;20640;-75
2021/05/28 01:53:06;;;;;;;7.00;5.57;;;12.20;97.00;;;;;;6201618;28;20076;-75
2021/05/28 01:56:08;;;;;;;7.03;4.40;;;12.10;97.10;;;;;;6201572;28;20081;-75
2021/05/28 01:59:13;;;;;;;6.50;5.45;;;12.10;97.30;;;;;;6201252;28;20051;-76
2021/05/28 02:02:14;;;;;;;6.60;5.22;;;12.00;97.30;;;;;;6201916;28;20129;-75
2021/05/28 02:05:16;;;;;;;5.70;5.13;;;12.00;97.40;;;;;;6201559;28;20707;-75
2021/05/28 02:08:18;;;;;;;8.32;5.05;;;12.00;97.60;;;;;;6201324;28;20070;-75
2021/05/28 02:11:19;;;;;;;7.13;5.10;;;11.90;97.80;;;;;;6200963;28;20548;-76
2021/05/28 02:14:21;;;;;;;6.75;5.63;;;11.90;97.80;;;;;;6201920;28;20054;-76
2021/05/28 02:17:22;;;;;;;8.55;5.00;;;11.90;97.90;;;;;;6201098;28;20054;-76
2021/05/28 02:20:25;;;;;;;5.47;4.97;;;11.90;98.00;;;;;;6201099;28;20053;-75
2021/05/28 02:23:27;;;;;;;9.52;4.90;;;11.90;98.20;;;;;;6201058;28;20048;-75
2021/05/28 02:26:29;;;;;;;8.13;4.78;;;11.90;98.30;;;;;;6201679;28;20163;-76
2021/05/28 02:29:30;;;;;;;6.68;5.97;;;11.80;98.40;;;;;;6200609;28;20074;-75
2021/05/28 02:32:31;;;;;;;6.40;5.80;;;11.70;98.60;;;;;;6200651;28;20078;-75
2021/05/28 02:35:33;;;;;;;5.43;4.93;;;11.60;99.00;;;;;;6200796;28;20464;-76
2021/05/28 02:38:35;;;;;;;6.72;5.78;;;11.50;99.30;;;;;;6200539;28;20081;-75
2021/05/28 02:41:36;;;;;;;7.20;5.70;;;11.40;99.50;;;;;;6200741;28;20181;-76
2021/05/28 02:44:39;;;;;;;6.53;5.82;;;11.30;99.90;;;;;;6200513;28;20523;-75
2021/05/28 02:47:40;;;;;;;5.47;4.80;;;11.30;99.90;;;;;;6200621;28;20133;-75
2021/05/28 02:50:41;;;;;;;6.88;5.38;;;11.30;99.90;;;;;;6200393;28;20050;-75
2021/05/28 02:53:44;;;;;;;11.57;6.40;;;11.30;99.90;;;;;;6200284;28;20070;-75
2021/05/28 02:56:45;;;;;;;9.70;6.10;;;11.30;99.90;;;;;;6200211;28;20530;-75
2021/05/28 02:59:46;;;;;;;11.15;7.40;;;11.30;99.90;;;;;;6200135;28;20057;-74
2021/05/28 03:02:48;;;;;;;12.48;7.00;;;11.40;99.50;;;;;;6200519;28;20137;-75
2021/05/28 03:05:50;;;;;;;12.23;6.80;;;11.40;98.90;;;;;;6200162;28;20046;-75
2021/05/28 03:08:52;;;;;;;8.90;7.45;;;11.40;98.80;;;;;;6199756;28;20100;-75
2021/05/28 03:11:53;;;;;;;11.02;7.55;;;11.40;98.50;;;;;;6200196;28;20134;-75
2021/05/28 03:14:55;;;;;;;8.80;6.90;;;11.50;98.40;;;;;;6199815;28;20150;-75
2021/05/28 03:17:58;;;;;;;12.95;7.05;;;11.40;98.30;;;;;;6200308;28;20074;-77
2021/05/28 03:21:18;;;;;;;8.80;7.78;;;11.50;98.20;;;;;;6199364;28;20048;-75
2021/05/28 03:24:20;;;;;;;11.82;6.70;;;11.50;97.80;;;;;;6199642;28;20043;-75
2021/05/28 03:27:21;;;;;;;8.48;6.00;;;11.60;97.70;;;;;;6199872;28;20100;-75
2021/05/28 03:30:23;;;;;;;9.65;5.97;;;11.60;97.50;;;;;;6199509;28;20188;-76
2021/05/28 03:33:25;;;;;;;7.30;5.82;;;11.70;97.30;;;;;;6199501;28;20121;-75
2021/05/28 03:36:26;;;;;;;10.98;7.63;;;11.70;97.30;;;;;;6199341;28;20046;-75
2021/05/28 03:39:28;;;;;;;12.38;6.22;;;11.70;97.00;;;;;;6199219;28;20045;-75
2021/05/28 03:42:30;;;;;;;8.40;5.53;;;11.80;96.90;;;;;;6199651;28;20042;-76
2021/05/28 03:45:31;;;;;;;11.95;7.15;;;11.80;96.80;;;;;;6199291;28;20050;-75
2021/05/28 03:48:32;;;;;;;12.68;6.38;;;11.80;96.80;;;;;;6198412;28;20444;-75
2021/05/28 03:51:34;;;;;;;10.50;6.95;;;11.80;96.50;;;;;;6198216;28;20070;-75
2021/05/28 03:54:36;;;;;;;10.90;6.60;;;11.90;96.50;;;;;;6199612;28;20104;-75
2021/05/28 03:57:37;;;;;;;10.40;6.53;;;11.90;96.70;;;;;;6198774;28;20461;-75
2021/05/28 04:00:39;;;;;;;9.27;5.82;;;11.90;97.50;;;;;;6198525;28;20080;-75
2021/05/28 04:03:40;;;;;;;17.70;6.95;;;12.00;97.50;;;;;;6198609;28;20456;-75
2021/05/28 04:06:41;;;;;;;15.05;7.43;;;12.00;97.30;;;;;;6199334;28;20089;-76
2021/05/28 04:09:43;;;;;;;6.82;6.13;;;12.00;97.20;;;;;;6198430;28;20074;-75
2021/05/28 04:12:45;;;;;;;12.68;6.30;;;11.90;97.50;;;;;;6198596;28;20070;-75
2021/05/28 04:15:46;;;;;;;9.70;6.90;;;11.90;97.90;;;;;;6198570;28;20129;-76
2021/05/28 04:18:47;;;;;;;10.95;6.25;;;11.90;97.70;;;;;;6198879;28;20050;-76
2021/05/28 04:21:49;;;;;;;16.58;8.02;;;11.90;97.40;;;;;;6198133;28;20092;-75
2021/05/28 04:24:51;;;;;;;8.73;6.63;;;12.00;97.40;;;;;;6198304;28;20050;-76
2021/05/28 04:27:52;;;;;;;11.20;7.72;;;12.10;97.00;;;;;;6198630;28;20093;-75
2021/05/28 04:30:54;;;;;;;13.27;7.07;;;12.20;96.20;;;;;;6197630;28;20506;-75
2021/05/28 04:33:56;;;;;;;10.20;7.78;;;12.10;95.90;;;;;;6242654;23;20145;-76
2021/05/28 04:36:57;;;;;;;11.77;9.13;;;12.00;95.80;;;;;;6223414;28;20133;-76
2021/05/28 04:40:00;;;;;;;19.67;8.57;;;12.00;96.10;;;;;;6237204;28;20042;-76
2021/05/28 04:43:01;;;;;;;21.80;9.90;;;12.10;96.00;;;;;;6222769;28;20074;-76
2021/05/28 04:46:02;;;;;;;15.25;9.88;;;12.20;95.50;;;;;;6223771;28;20057;-76
2021/05/28 04:49:04;;;;;;;14.57;8.45;;;12.30;95.40;;;;;;6223308;28;20077;-76
2021/05/28 04:52:05;;;;;;;14.98;8.40;;;12.30;95.30;;;;;;6223321;28;20129;-77
2021/05/28 04:55:09;;;;;;;13.57;8.13;;;12.40;95.20;;;;;;6223162;28;20566;-76
2021/05/28 04:58:10;;;;;;;12.63;7.65;;;12.60;95.10;;;;;;6223672;28;20089;-76
2021/05/28 05:01:12;;;;;;;16.08;10.07;;;12.80;94.90;;;;;;6222363;28;20082;-76
2021/05/28 05:04:13;;;;;;;17.15;10.70;;;12.90;94.10;;;;;;6222668;28;20073;-76
2021/05/28 05:07:14;;;;;;;10.60;8.43;;;12.90;93.90;;;;;;6222949;28;20065;-76
2021/05/28 05:10:16;;;;;;;10.50;8.90;;;12.80;93.90;;;;;;6222471;28;20498;-75
2021/05/28 05:13:18;;;;;;;15.85;9.48;;;12.80;93.80;;;;;;6222445;28;20072;-75
2021/05/28 05:16:19;;;;;;;10.70;8.88;;;12.80;93.80;;;;;;6222760;28;20069;-76
2021/05/28 05:19:20;;;;;;;16.65;11.73;;;12.90;93.70;;;;;;6222674;28;20107;-76
2021/05/28 05:22:21;;;;;;;15.63;9.90;;;12.90;93.70;;;;;;6223078;28;20508;-76
2021/05/28 05:25:24;;;;;;;14.63;8.50;;;12.90;93.50;;;;;;6222834;28;20129;-76
2021/05/28 05:28:25;;;;;;;13.30;9.75;;;12.90;93.70;;;;;;6222553;28;20053;-75
2021/05/28 05:31:27;;;;;;;17.23;10.80;;;13.00;93.60;;;;;;6222472;28;20041;-75
2021/05/28 05:34:28;;;;;;;17.15;9.35;;;13.00;93.40;;;;;;6223216;28;20046;-76
2021/05/28 05:37:29;;;;;;;17.52;10.77;;;13.00;93.60;;;;;;6222339;28;20050;-76
2021/05/28 05:40:31;;;;;;;16.63;11.35;;;13.00;93.60;;;;;;6222298;28;20419;-75
2021/05/28 05:43:33;;;;;;;17.58;10.05;;;13.00;93.60;;;;;;6222329;28;20563;-76
2021/05/28 05:46:34;;;;;;;17.73;9.63;;;13.10;93.30;;;;;;6223162;28;20054;-77
2021/05/28 05:49:36;;;;;;;15.35;9.18;;;13.20;92.80;;;;;;6221675;28;20073;-77
2021/05/28 05:52:38;;;;;;;18.92;10.70;;;13.30;92.90;;;;;;6222073;28;20042;-76
2021/05/28 05:55:40;;;;;;;11.70;9.15;;;13.30;92.30;;;;;;6221834;28;20050;-76
2021/05/28 05:58:41;;;;;;;17.23;8.65;;;13.40;92.40;;;;;;6222742;28;20050;-76
2021/05/28 06:01:42;;;;;;;17.35;9.23;;;13.40;91.90;;;;;;6221900;28;20427;-76
2021/05/28 06:04:44;;;;;;;13.02;9.23;;;13.50;91.60;;;;;;6209431;28;20523;-77
2021/05/28 06:07:45;;;;;;;9.90;8.35;;;13.70;91.40;;;;;;6209814;28;20150;-77
2021/05/28 06:10:47;;;;;;;10.18;8.85;;;13.70;90.60;;;;;;6216306;28;20050;-77
2021/05/28 06:13:49;;;;;;;10.43;7.57;;;13.60;90.70;;;;;;6215062;28;20132;-76
2021/05/28 06:16:50;;;;;;;11.20;8.18;;;13.60;90.60;;;;;;6201636;28;20420;-76
2021/05/28 06:19:52;;;;;;;10.38;7.35;;;13.60;90.40;;;;;;6201682;28;20097;-76
2021/05/28 06:22:53;;;;;;;8.98;7.32;;;13.70;90.00;;;;;;6215259;28;20050;-77
2021/05/28 06:25:57;;;;;;;14.85;7.35;;;13.70;89.20;;;;;;6226485;28;20085;-76
2021/05/28 06:28:58;;;;;;;13.75;8.65;;;13.70;89.00;;;;;;6225423;28;20053;-77
2021/05/28 06:31:59;;;;;;;12.32;8.68;;;13.60;88.60;;;;;;6225916;28;20073;-76
2021/05/28 06:35:01;;;;;;;14.70;7.95;;;13.50;89.00;;;;;;6225706;28;20088;-77
2021/05/28 06:38:02;;;;;;;12.48;7.95;;;13.50;89.50;;;;;;6226554;28;20136;-75
2021/05/28 06:41:05;;;;;;;8.88;7.10;;;13.60;89.70;;;;;;6203429;28;20129;-76
2021/05/28 06:44:06;;;;;;;8.48;7.30;;;13.80;89.60;;;;;;6201970;28;20077;-76
2021/05/28 06:47:08;;;;;;;11.85;8.38;;;14.00;88.90;;;;;;6201890;28;20125;-76
2021/05/28 06:50:11;;;;;;;12.32;7.68;;;14.00;88.90;;;;;;6201954;28;20154;-76
2021/05/28 06:53:13;;;;;;;13.50;7.13;;;14.00;88.20;;;;;;6201667;28;20052;-75
2021/05/28 06:56:15;;;;;;;10.88;7.22;;;14.00;87.90;;;;;;6201669;28;20086;-75
2021/05/28 06:59:16;;;;;;;11.00;7.57;;;14.00;87.80;;;;;;6201269;28;20496;-76
2021/05/28 07:02:18;;;;;;;11.50;8.27;;;14.00;87.20;;;;;;6201550;28;20448;-75
2021/05/28 07:05:20;;;;;;;10.07;6.78;;;14.30;86.50;;;;;;6201169;28;20056;-76
2021/05/28 07:08:22;;;;;;;11.32;8.90;;;14.60;85.40;;;;;;6201351;28;20047;-76
2021/05/28 07:11:24;;;;;;;13.18;7.28;;;15.00;84.40;;;;;;6200783;28;20544;-77
2021/05/28 07:14:25;;;;;;;17.25;7.97;;;15.30;82.90;;;;;;6217814;28;20084;-75
2021/05/28 07:17:27;;;;;;;8.45;6.25;;;15.50;80.70;;;;;;6225627;28;20574;-76
2021/05/28 07:20:28;;;;;;;10.82;7.00;;;15.50;80.00;;;;;;6224977;28;20196;-76
2021/05/28 07:23:29;;;;;;;12.35;6.38;;;15.50;79.50;;;;;;6224785;28;20103;-76
2021/05/28 07:26:32;;;;;;;7.47;6.13;;;16.00;78.50;;;;;;6225752;28;20045;-76
2021/05/28 07:29:33;;;;;;;7.72;5.90;;;16.90;75.10;;;;;;6224590;28;20435;-75
2021/05/28 07:32:35;;;;;;;10.45;6.28;;;17.60;72.80;;;;;;6224823;28;20049;-77
2021/05/28 07:35:36;;;;;;;9.07;5.18;;;18.40;69.80;;;;;;6224982;28;20140;-76
2021/05/28 07:38:37;;;;;;;8.98;6.47;;;18.80;66.40;;;;;;6225250;28;20058;-77
2021/05/28 07:41:40;;;;;;;14.20;6.03;;;18.40;66.00;;;;;;6224705;28;20100;-77
2021/05/28 07:44:41;;;;;;;14.40;6.80;;;18.40;65.80;;;;;;6224701;28;20518;-77
2021/05/28 07:47:42;;;;;;;7.10;4.57;;;18.40;66.00;;;;;;6224877;28;20073;-77
2021/05/28 07:50:47;;;;;;;6.32;5.75;;;18.70;62.60;;;;;;6224585;28;20081;-76
2021/05/28 07:53:49;;;;;;;8.43;6.53;;;18.60;62.70;;;;;;6225045;28;20046;-77
2021/05/28 07:56:51;;;;;;;9.45;6.10;;;18.50;63.30;;;;;;6224610;28;20132;-76
2021/05/28 07:59:52;;;;;;;5.85;5.25;;;18.40;63.30;;;;;;6224552;28;20052;-76
2021/05/28 08:02:53;;;;;;;8.15;5.40;;;18.00;64.50;;;;;;6224111;28;20128;-77
2021/05/28 08:05:55;;;;;;;9.23;5.78;;;17.70;64.90;;;;;;6224916;28;20062;-77
2021/05/28 08:08:56;;;;;;;7.78;5.25;;;17.60;64.90;;;;;;6224214;28;20479;-77
2021/05/28 08:11:58;;;;;;;7.00;5.82;;;17.20;66.40;;;;;;6224392;28;20069;-77
2021/05/28 08:14:59;;;;;;;9.88;5.60;;;17.20;66.70;;;;;;6224513;28;20081;-76
2021/05/28 08:18:01;;;;;;;5.78;5.13;;;17.40;65.90;;;;;;6224398;28;20134;-76
2021/05/28 08:21:04;;;;;;;4.78;3.88;;;17.60;65.00;;;;;;6224233;28;20042;-77
2021/05/28 08:24:06;;;;;;;6.03;4.03;;;18.00;63.10;;;;;;6224167;28;20507;-76
2021/05/28 08:27:08;;;;;;;5.75;4.00;;;18.30;60.10;;;;;;6224356;28;20595;-77
2021/05/28 08:30:13;;;;;;;5.40;4.15;;;18.70;59.90;;;;;;6225873;28;20057;-77
2021/05/28 08:33:15;;;;;;;8.55;5.22;;;19.30;60.80;;;;;;6226442;28;20117;-77
2021/05/28 08:36:17;;;;;;;30.60;4.57;;;19.60;59.10;;;;;;6225932;28;20077;-77
2021/05/28 08:39:20;;;;;;;5.03;4.53;;;19.60;59.60;;;;;;6226986;28;20121;-77
2021/05/28 08:42:22;;;;;;;15.77;10.57;;;19.80;55.40;;;;;;6226938;28;20056;-77
2021/05/28 08:45:23;;;;;;;12.10;8.10;;;20.20;56.40;;;;;;6230860;28;20056;-77
2021/05/28 08:48:25;;;;;;;5.80;4.90;;;20.50;54.70;;;;;;6226115;28;20120;-77
2021/05/28 08:51:26;;;;;;;11.88;7.25;;;20.60;55.10;;;;;;6224425;28;20139;-77
2021/05/28 08:54:27;;;;;;;16.50;8.48;;;20.60;55.10;;;;;;6247427;28;20034;-77
2021/05/28 08:57:29;;;;;;;10.48;5.07;;;20.30;55.30;;;;;;6254738;28;20038;-76
2021/05/28 09:00:31;;;;;;;12.68;4.90;;;19.80;56.00;;;;;;6254538;28;20049;-75
2021/05/28 09:03:34;;;;;;;6.97;4.15;;;19.20;58.40;;;;;;6254547;28;20026;-75
2021/05/28 09:06:39;;;;;;;18.33;13.80;;;18.90;59.70;;;;;;6254987;28;20072;-74
2021/05/28 09:09:41;;;;;;;4.63;4.18;;;18.60;59.90;;;;;;6254285;28;20034;-75
2021/05/28 09:12:43;;;;;;;6.35;3.80;;;18.40;59.70;;;;;;6251255;28;20038;-75
2021/05/28 09:15:52;;;;;;;4.78;4.25;;;18.40;60.60;;;;;;6228504;28;20074;-75
2021/05/28 09:18:55;;;;;;;13.73;6.32;;;18.50;59.20;;;;;;6218258;28;20034;-75
2021/05/28 09:21:59;;;;;;;5.82;4.55;;;18.50;59.30;;;;;;6200739;28;20081;-75
2021/05/28 09:25:00;;;;;;;5.10;3.85;;;18.80;58.60;;;;;;6200188;28;20053;-77
2021/05/28 09:28:09;;;;;;;8.20;4.40;;;19.50;56.60;;;;;;6199231;28;20125;-76
2021/05/28 09:31:14;;;;;;;4.90;3.35;;;19.50;57.40;;;;;;6197782;28;20518;-77
2021/05/28 09:34:26;;;;;;;6.55;4.30;;;19.30;57.70;;;;;;6198576;28;20051;-76
2021/05/28 09:37:42;;;;;;;6.18;4.22;;;19.30;57.40;;;;;;6198300;28;20050;-74
2021/05/28 09:40:44;;;;;;;5.13;4.43;;;19.50;56.90;;;;;;6197517;28;20074;-75
2021/05/28 09:43:46;;;;;;;6.38;4.90;;;20.00;56.00;;;;;;6197777;28;20228;-76
2021/05/28 09:47:05;;;;;;;6.05;5.25;;;20.80;54.50;;;;;;6198021;28;20085;-76
2021/05/28 09:50:13;;;;;;;5.43;4.05;;;21.40;52.80;;;;;;6202357;28;20108;-74
2021/05/28 09:53:30;;;;;;;6.55;4.32;;;22.10;50.10;;;;;;6202572;28;20078;-74
2021/05/28 09:56:32;;;;;;;4.47;3.72;;;22.90;48.90;;;;;;6202565;28;20070;-74
2021/05/28 09:59:46;;;;;;;4.93;3.42;;;22.70;48.00;;;;;;6201748;28;20616;-76
2021/05/28 10:02:47;;;;;;;7.95;4.47;;;21.90;49.90;;;;;;6202801;28;20046;-76
2021/05/28 10:05:51;;;;;;;6.35;4.63;;;21.10;51.50;;;;;;6201872;28;20046;-76
2021/05/28 10:08:53;;;;;;;6.57;4.28;;;20.70;52.60;;;;;;6202678;28;20052;-76
2021/05/28 10:11:55;;;;;;;5.78;4.78;;;20.30;54.20;;;;;;6201810;28;20133;-76
2021/05/28 10:14:57;;;;;;;6.13;5.28;;;20.70;53.90;;;;;;6222497;28;20053;-75
2021/05/28 10:17:58;;;;;;;8.10;3.47;;;21.30;52.10;;;;;;6227105;28;20131;-74
2021/05/28 10:21:00;;;;;;;4.55;3.55;;;21.50;50.40;;;;;;6226671;28;20132;-75
2021/05/28 10:24:01;;;;;;;4.20;3.55;;;21.10;51.20;;;;;;6227746;28;20132;-75
2021/05/28 10:27:03;;;;;;;5.38;3.85;;;20.50;52.40;;;;;;6226666;28;20049;-75
2021/05/28 10:30:14;;;;;;;3.95;2.97;;;20.60;53.00;;;;;;6227237;28;20141;-76
2021/05/28 10:33:21;;;;;;;4.65;2.92;;;20.90;48.50;;;;;;6226103;28;20125;-74
2021/05/28 10:36:42;;;;;;;3.70;2.45;;;21.20;48.80;;;;;;6225942;28;20104;-74
2021/05/28 10:39:46;;;;;;;4.32;2.15;;;21.70;48.60;;;;;;6225823;28;20133;-74
2021/05/28 10:42:58;;;;;;;7.53;2.72;;;21.50;47.80;;;;;;6226690;28;20496;-75
2021/05/28 10:46:04;;;;;;;3.85;2.70;;;21.00;48.90;;;;;;6226055;28;20064;-74
2021/05/28 10:49:11;;;;;;;2.78;1.85;;;20.80;49.50;;;;;;6225608;28;20577;-74
2021/05/28 10:52:27;;;;;;;5.15;3.85;;;20.80;47.20;;;;;;6225905;28;20049;-77
2021/05/28 10:55:28;;;;;;;3.35;3.00;;;21.50;49.10;;;;;;6225937;28;20096;-73
2021/05/28 10:58:52;;;;;;;3.03;2.63;;;22.10;48.30;;;;;;6225053;28;20145;-74
2021/05/28 11:01:56;;;;;;;4.25;2.47;;;22.20;48.60;;;;;;6225826;28;20196;-73
2021/05/28 11:04:59;;;;;;;3.42;2.97;;;22.00;47.80;;;;;;6225165;28;20120;-73
2021/05/28 11:08:00;;;;;;;4.97;2.70;;;21.90;47.60;;;;;;6225002;28;20393;-73
2021/05/28 11:11:02;;;;;;;3.47;2.50;;;22.00;48.00;;;;;;6224514;28;20791;-75
2021/05/28 11:14:06;;;;;;;2.80;2.47;;;22.50;46.80;;;;;;6212233;28;20042;-73
2021/05/28 11:17:21;;;;;;;3.70;1.85;;;22.90;45.60;;;;;;6200607;28;20100;-73
2021/05/28 11:20:28;;;;;;;4.00;2.00;;;23.10;45.50;;;;;;6200496;28;20046;-74
2021/05/28 11:23:42;;;;;;;4.80;2.28;;;23.10;44.40;;;;;;6200809;28;20121;-74
2021/05/28 11:26:43;;;;;;;4.43;1.85;;;22.70;45.10;;;;;;6201581;28;20101;-74
2021/05/28 11:29:44;;;;;;;2.70;2.08;;;22.10;45.70;;;;;;6200998;28;20420;-73
2021/05/28 11:32:48;;;;;;;8.93;2.42;;;21.40;46.10;;;;;;6200009;28;20046;-73
2021/05/28 11:35:50;;;;;;;4.15;1.70;;;21.30;46.60;;;;;;6199662;28;20053;-73
2021/05/28 11:38:56;;;;;;;2.95;1.58;;;21.60;45.20;;;;;;6200446;28;20054;-73
2021/05/28 11:42:03;;;;;;;5.88;2.50;;;21.60;45.00;;;;;;6200431;28;20575;-74
2021/05/28 11:45:07;;;;;;;2.30;1.67;;;21.90;46.60;;;;;;6200256;28;20094;-74
2021/05/28 11:48:14;;;;;;;3.17;2.38;;;21.90;46.30;;;;;;6199842;28;20050;-74
2021/05/28 11:51:17;;;;;;;5.00;2.20;;;21.80;46.60;;;;;;6199545;28;20101;-74
2021/05/28 11:54:24;;;;;;;3.33;2.40;;;21.70;46.20;;;;;;6200776;28;20051;-74
2021/05/28 11:57:25;;;;;;;5.45;2.20;;;21.70;46.00;;;;;;6199851;28;20153;-75
2021/05/28 12:00:27;;;;;;;3.10;1.90;;;21.40;45.50;;;;;;6199457;28;20101;-75
2021/05/28 12:03:29;;;;;;;2.47;1.90;;;21.30;47.10;;;;;;6199771;28;20049;-75
2021/05/28 12:06:34;;;;;;;10.15;3.45;;;21.60;46.40;;;;;;6200602;28;20060;-75
2021/05/28 12:09:35;;;;;;;4.57;2.83;;;21.80;45.40;;;;;;6199253;28;20074;-75
2021/05/28 12:13:07;;;;;;;2.50;2.30;;;22.10;44.90;;;;;;6198808;28;20180;-74
2021/05/28 12:16:11;;;;;;;5.63;3.00;;;22.40;43.70;;;;;;6199780;28;20046;-74
2021/05/28 12:19:16;;;;;;;3.17;2.00;;;22.30;44.10;;;;;;6199602;28;20058;-74
2021/05/28 12:22:20;;;;;;;4.88;3.20;;;22.20;44.20;;;;;;6199618;28;20416;-74
2021/05/28 12:25:21;;;;;;;2.33;1.67;;;21.90;45.30;;;;;;6198971;28;20133;-74
2021/05/28 12:28:26;;;;;;;14.80;5.07;;;21.30;44.10;;;;;;6199460;28;20070;-74
2021/05/28 12:31:28;;;;;;;2.28;1.50;;;20.70;46.90;;;;;;6198852;28;20110;-74
2021/05/28 12:34:31;;;;;;;1.92;1.17;;;20.70;46.40;;;;;;6199742;28;20053;-74
2021/05/28 12:37:32;;;;;;;7.75;2.78;;;21.30;46.20;;;;;;6198875;28;20487;-74
2021/05/28 12:40:35;;;;;;;3.08;1.95;;;21.90;44.30;;;;;;6198273;28;20691;-74
2021/05/28 12:43:41;;;;;;;2.58;1.70;;;22.70;44.10;;;;;;6198708;28;20046;-74
2021/05/28 12:46:42;;;;;;;1.63;1.52;;;23.00;42.30;;;;;;6199153;28;20058;-74
2021/05/28 12:49:45;;;;;;;3.78;1.25;;;22.80;43.20;;;;;;6198238;28;20053;-75
2021/05/28 12:52:53;;;;;;;1.70;1.55;;;22.40;43.30;;;;;;6198650;28;20074;-74
2021/05/28 12:55:55;;;;;;;;;;;22.10;44.80;;;;;;6199164;28;20077;-74
2021/05/28 12:58:57;;;;;;;3.03;1.50;;;21.80;45.00;;;;;;6198070;28;19953;-74
2021/05/28 13:02:11;;;;;;;2.80;1.45;;;21.80;45.50;;;;;;6207556;28;20076;-74
2021/05/28 13:05:13;;;;;;;3.65;1.40;;;21.90;44.70;;;;;;6198434;28;20042;-74
2021/05/28 13:08:30;;;;;;;1.40;1.30;;;21.80;42.50;;;;;;6198818;28;20145;-73
2021/05/28 13:11:50;;;;;;;1.50;1.40;;;21.70;42.00;;;;;;6198422;28;20070;-75
2021/05/28 13:14:54;;;;;;;1.67;1.30;;;21.40;42.80;;;;;;6198121;28;20489;-74
2021/05/28 13:17:57;;;;;;;3.42;1.88;;;21.10;44.00;;;;;;6198540;28;20053;-74
2021/05/28 13:21:19;;;;;;;2.20;1.58;;;21.10;45.40;;;;;;6198222;28;20046;-75
2021/05/28 13:24:34;;;;;;;4.93;1.65;;;21.00;42.40;;;;;;6198170;28;20042;-74
2021/05/28 13:27:35;;;;;;;4.03;1.77;;;20.90;43.00;;;;;;6198018;28;20050;-74
2021/05/28 13:30:40;;;;;;;9.65;2.88;;;21.30;44.60;;;;;;6198274;28;20056;-74
2021/05/28 13:33:42;;;;;;;3.17;1.73;;;21.50;45.60;;;;;;6197674;28;20043;-74
2021/05/28 13:36:44;;;;;;;3.15;1.42;;;22.00;44.70;;;;;;6198205;28;20097;-74
2021/05/28 13:39:46;;;;;;;2.63;1.13;;;22.40;44.10;;;;;;6197218;28;20093;-74
2021/05/28 13:42:47;;;;;;;2.95;1.20;;;22.60;43.30;;;;;;6197662;28;20084;-75
2021/05/28 13:45:50;;;;;;;1.40;1.08;;;22.90;43.00;;;;;;6197600;28;20046;-74
2021/05/28 13:48:51;;;;;;;3.83;1.38;;;23.10;43.40;;;;;;6197090;28;20076;-75
2021/05/28 13:51:54;;;;;;;1.15;1.05;;;23.20;41.40;;;;;;6197395;28;20128;-75
2021/05/28 13:54:55;;;;;;;2.25;1.60;;;22.80;42.90;;;;;;6197544;28;20050;-75
2021/05/28 13:57:57;;;;;;;1.52;1.08;;;22.20;42.30;;;;;;6197956;28;20444;-75
2021/05/28 14:00:58;;;;;;;1.08;0.98;;;21.50;44.80;;;;;;6197072;28;20515;-74
2021/05/28 14:04:00;;;;;;;4.80;1.35;;;21.50;44.80;;;;;;6197555;28;20048;-75
2021/05/28 14:07:02;;;;;;;3.60;1.98;;;21.20;44.60;;;;;;6197486;28;20057;-75
2021/05/28 14:10:04;;;;;;;1.50;1.25;;;21.30;45.40;;;;;;6197437;28;20053;-75
2021/05/28 14:13:06;;;;;;;6.53;1.05;;;21.60;45.50;;;;;;6202903;28;20516;-75
2021/05/28 14:16:07;;;;;;;2.38;1.33;;;22.10;44.40;;;;;;6221597;28;20132;-75
2021/05/28 14:19:09;;;;;;;2.08;1.20;;;22.40;43.90;;;;;;6221119;28;20132;-75
2021/05/28 14:22:11;;;;;;;4.20;1.60;;;22.60;43.30;;;;;;6221901;28;20142;-75
2021/05/28 14:25:13;;;;;;;1.35;1.23;;;22.80;43.20;;;;;;6221521;28;20133;-76
2021/05/28 14:28:14;;;;;;;1.50;1.00;;;22.70;42.60;;;;;;6221400;28;20057;-76
2021/05/28 14:31:16;;;;;;;1.70;1.05;;;22.50;43.10;;;;;;6221236;28;20046;-75
2021/05/28 14:34:17;;;;;;;2.22;1.33;;;22.40;44.00;;;;;;6222988;28;20042;-76
2021/05/28 14:37:20;;;;;;;1.30;0.75;;;22.00;43.70;;;;;;6225365;28;20084;-75
2021/05/28 14:40:23;;;;;;;2.15;1.00;;;21.80;44.40;;;;;;6225593;28;20184;-75
2021/05/28 14:43:24;;;;;;;1.63;1.00;;;21.50;44.20;;;;;;6225776;28;20132;-75
2021/05/28 14:46:26;;;;;;;2.10;1.48;;;21.00;43.70;;;;;;6225931;28;20135;-75
2021/05/28 14:49:27;;;;;;;1.33;1.20;;;20.70;44.90;;;;;;6225338;28;20176;-74
2021/05/28 14:52:29;;;;;;;2.97;1.33;;;20.50;44.70;;;;;;6225093;28;20513;-75
2021/05/28 14:55:31;;;;;;;5.82;1.45;;;20.40;44.30;;;;;;6224929;28;20510;-75
2021/05/28 14:58:33;;;;;;;1.60;1.30;;;20.50;45.20;;;;;;6225358;28;20192;-75
2021/05/28 15:01:34;;;;;;;5.72;1.50;;;21.00;46.40;;;;;;6224811;28;20530;-74
2021/05/28 15:04:36;;;;;;;3.17;1.38;;;21.50;46.40;;;;;;6225275;28;20476;-74
2021/05/28 15:07:38;;;;;;;1.77;1.33;;;21.70;46.30;;;;;;6224958;28;20149;-74
2021/05/28 15:10:40;;;;;;;1.75;1.27;;;21.70;45.80;;;;;;6225548;28;20052;-74
2021/05/28 15:13:41;;;;;;;2.70;1.50;;;21.80;43.40;;;;;;6214438;28;20481;-74
2021/05/28 15:16:43;;;;;;;2.83;1.42;;;21.40;44.40;;;;;;6200291;28;20050;-76
2021/05/28 15:19:44;;;;;;;1.30;1.20;;;20.90;45.00;;;;;;6200286;28;20046;-76
2021/05/28 15:22:46;;;;;;;4.07;1.75;;;20.80;44.80;;;;;;6200665;28;20085;-76
2021/05/28 15:25:48;;;;;;;1.35;1.23;;;20.80;45.40;;;;;;6200460;28;20129;-76
2021/05/28 15:28:49;;;;;;;4.38;1.10;;;20.70;44.60;;;;;;6200398;28;20066;-75
2021/05/28 15:31:51;;;;;;;2.60;1.40;;;20.40;44.90;;;;;;6200549;28;20096;-75
2021/05/28 15:34:52;;;;;;;1.52;1.40;;;20.20;45.70;;;;;;6200318;28;20078;-75
2021/05/28 15:37:55;;;;;;;1.30;1.20;;;19.90;45.90;;;;;;6200740;28;20081;-75
2021/05/28 15:40:56;;;;;;;4.40;2.40;;;19.80;47.10;;;;;;6199889;28;20054;-73
2021/05/28 15:43:58;;;;;;;0.82;0.82;;;20.00;49.00;;;;;;6199926;28;20578;-75
2021/05/28 15:47:00;;;;;;;2.63;1.63;;;20.40;46.50;;;;;;6200031;28;20197;-75